KZR133 UACC-UTDD
Flight info
| Callsign | KZR133 |
|---|---|
| Flight time | 2h 3m |
| Altitude | 38000 |
| Route | KOKON M75 AMIGU P178 TIMKA M168 GENDI DODUR PF A103 SX |
| Aircraft | A319/M-SDE3FGHIRWY/LB1 |
Departure
| Time | 2026-04-26 12:37 |
|---|---|
| Airport | Nursultan Nazarbayev International Airport (UACC) |
Arrival
| Time | 2026-04-26 14:41 |
|---|---|
| Airport | Dushanbe International Airport (UTDD) |
| Time | Latitude | Longitude | Altitude | Speed | Heading |
|---|---|---|---|---|---|
| 2026-04-26 12:25 | 51.02620 | 71.46299 | 1169 ft | 0 kts | 45° |
| 2026-04-26 12:28 | 51.02625 | 71.46347 | 1170 ft | 6 kts | 84° |
| 2026-04-26 12:28 | 51.02643 | 71.46474 | 1170 ft | 13 kts | 56° |
| 2026-04-26 12:28 | 51.02701 | 71.46584 | 1170 ft | 13 kts | 73° |
| 2026-04-26 12:29 | 51.02662 | 71.46712 | 1170 ft | 14 kts | 117° |
| 2026-04-26 12:29 | 51.02704 | 71.46858 | 1168 ft | 16 kts | 44° |
| 2026-04-26 12:29 | 51.02919 | 71.47195 | 1167 ft | 23 kts | 44° |
| 2026-04-26 12:30 | 51.03037 | 71.47378 | 1164 ft | 23 kts | 44° |
| 2026-04-26 12:30 | 51.03153 | 71.47562 | 1164 ft | 23 kts | 44° |
| 2026-04-26 12:30 | 51.03268 | 71.47742 | 1164 ft | 22 kts | 44° |
| 2026-04-26 12:31 | 51.03370 | 71.47903 | 1164 ft | 0 kts | 44° |
| 2026-04-26 12:31 | 51.03371 | 71.47905 | 1164 ft | 2 kts | 44° |
| 2026-04-26 12:31 | 51.03406 | 71.47967 | 1164 ft | 9 kts | 56° |
| 2026-04-26 12:32 | 51.03418 | 71.48010 | 1164 ft | 0 kts | 78° |
| 2026-04-26 12:33 | 51.03418 | 71.48011 | 1164 ft | 1 kts | 78° |
| 2026-04-26 12:33 | 51.03423 | 71.48097 | 1164 ft | 10 kts | 89° |
| 2026-04-26 12:34 | 51.03424 | 71.48144 | 1164 ft | 0 kts | 89° |
| 2026-04-26 12:35 | 51.03424 | 71.48148 | 1164 ft | 3 kts | 89° |
| 2026-04-26 12:35 | 51.03415 | 71.48266 | 1164 ft | 14 kts | 117° |
| 2026-04-26 12:35 | 51.03335 | 71.48303 | 1164 ft | 14 kts | 216° |
| 2026-04-26 12:35 | 51.03308 | 71.48264 | 1164 ft | 0 kts | 224° |
| 2026-04-26 12:36 | 51.03244 | 71.48162 | 1164 ft | 43 kts | 224° |
| 2026-04-26 12:36 | 51.02844 | 71.47538 | 1164 ft | 114 kts | 224° |
| 2026-04-26 12:37 | 51.02135 | 71.46438 | 1256 ft | 159 kts | 227° |
| 2026-04-26 12:37 | 51.01347 | 71.45242 | 1917 ft | 158 kts | 227° |
| 2026-04-26 12:37 | 51.00584 | 71.44061 | 2710 ft | 154 kts | 231° |
| 2026-04-26 12:37 | 50.99825 | 71.42851 | 3299 ft | 161 kts | 233° |
| 2026-04-26 12:38 | 50.99008 | 71.41518 | 3711 ft | 176 kts | 233° |
| 2026-04-26 12:38 | 50.98111 | 71.40077 | 4087 ft | 195 kts | 232° |
| 2026-04-26 12:38 | 50.97116 | 71.38503 | 4526 ft | 212 kts | 231° |
| 2026-04-26 12:38 | 50.96014 | 71.36772 | 4946 ft | 232 kts | 230° |
| 2026-04-26 12:39 | 50.94839 | 71.34950 | 5531 ft | 246 kts | 230° |
| 2026-04-26 12:39 | 50.93574 | 71.32989 | 6136 ft | 259 kts | 230° |
| 2026-04-26 12:39 | 50.92288 | 71.30998 | 6950 ft | 263 kts | 229° |
| 2026-04-26 12:39 | 50.90997 | 71.29000 | 7823 ft | 264 kts | 229° |
| 2026-04-26 12:40 | 50.89688 | 71.26975 | 8675 ft | 266 kts | 229° |
| 2026-04-26 12:40 | 50.88370 | 71.24953 | 9511 ft | 268 kts | 228° |
| 2026-04-26 12:40 | 50.87037 | 71.22914 | 10328 ft | 270 kts | 228° |
| 2026-04-26 12:40 | 50.85669 | 71.20810 | 10863 ft | 283 kts | 228° |
| 2026-04-26 12:41 | 50.84211 | 71.18559 | 11231 ft | 300 kts | 228° |
| 2026-04-26 12:41 | 50.82674 | 71.16183 | 11595 ft | 317 kts | 227° |
| 2026-04-26 12:41 | 50.81087 | 71.13742 | 12256 ft | 322 kts | 227° |
| 2026-04-26 12:41 | 50.79505 | 71.11313 | 13027 ft | 323 kts | 227° |
| 2026-04-26 12:42 | 50.77877 | 71.08817 | 13788 ft | 325 kts | 227° |
| 2026-04-26 12:42 | 50.76279 | 71.06366 | 14487 ft | 327 kts | 227° |
| 2026-04-26 12:42 | 50.74642 | 71.03859 | 15141 ft | 330 kts | 227° |
| 2026-04-26 12:42 | 50.72993 | 71.01333 | 15725 ft | 334 kts | 227° |
| 2026-04-26 12:43 | 50.71293 | 70.98822 | 16328 ft | 338 kts | 225° |
| 2026-04-26 12:43 | 50.69478 | 70.96490 | 16934 ft | 342 kts | 221° |
| 2026-04-26 12:43 | 50.67507 | 70.94308 | 17529 ft | 346 kts | 217° |
| 2026-04-26 12:43 | 50.65505 | 70.92275 | 18106 ft | 348 kts | 217° |
| 2026-04-26 12:44 | 50.63445 | 70.90191 | 18710 ft | 350 kts | 217° |
| 2026-04-26 12:44 | 50.61396 | 70.88121 | 19251 ft | 352 kts | 217° |
| 2026-04-26 12:44 | 50.59351 | 70.86059 | 19792 ft | 354 kts | 217° |
| 2026-04-26 12:44 | 50.57267 | 70.83962 | 20339 ft | 356 kts | 217° |
| 2026-04-26 12:45 | 50.55183 | 70.81870 | 20851 ft | 358 kts | 217° |
| 2026-04-26 12:45 | 50.53080 | 70.79759 | 21355 ft | 361 kts | 216° |
| 2026-04-26 12:45 | 50.50956 | 70.77629 | 21677 ft | 367 kts | 216° |
| 2026-04-26 12:45 | 50.48785 | 70.75450 | 22038 ft | 372 kts | 216° |
| 2026-04-26 12:46 | 50.46601 | 70.73270 | 22487 ft | 374 kts | 216° |
| 2026-04-26 12:46 | 50.44398 | 70.71072 | 22941 ft | 376 kts | 216° |
| 2026-04-26 12:46 | 50.42193 | 70.68874 | 23380 ft | 378 kts | 216° |
| 2026-04-26 12:46 | 50.39994 | 70.66683 | 23803 ft | 379 kts | 216° |
| 2026-04-26 12:47 | 50.37772 | 70.64473 | 24202 ft | 381 kts | 216° |
| 2026-04-26 12:47 | 50.35539 | 70.62254 | 24597 ft | 383 kts | 216° |
| 2026-04-26 12:47 | 50.33272 | 70.60004 | 24990 ft | 385 kts | 216° |
| 2026-04-26 12:47 | 50.31018 | 70.57768 | 25366 ft | 387 kts | 216° |
| 2026-04-26 12:48 | 50.28725 | 70.55499 | 25715 ft | 390 kts | 216° |
| 2026-04-26 12:48 | 50.26444 | 70.53241 | 26066 ft | 392 kts | 216° |
| 2026-04-26 12:48 | 50.24137 | 70.50964 | 26428 ft | 393 kts | 216° |
| 2026-04-26 12:48 | 50.21823 | 70.48681 | 26758 ft | 395 kts | 216° |
| 2026-04-26 12:49 | 50.19504 | 70.46394 | 27073 ft | 397 kts | 216° |
| 2026-04-26 12:49 | 50.17188 | 70.44061 | 27396 ft | 398 kts | 218° |
| 2026-04-26 12:49 | 50.14942 | 70.41557 | 27753 ft | 398 kts | 220° |
| 2026-04-26 12:49 | 50.12751 | 70.38975 | 28201 ft | 396 kts | 219° |
| 2026-04-26 12:50 | 50.10551 | 70.36423 | 28654 ft | 394 kts | 220° |
| 2026-04-26 12:50 | 50.08368 | 70.33886 | 29070 ft | 393 kts | 219° |
| 2026-04-26 12:50 | 50.06183 | 70.31331 | 29458 ft | 393 kts | 219° |
| 2026-04-26 12:50 | 50.04020 | 70.28805 | 29831 ft | 393 kts | 219° |
| 2026-04-26 12:51 | 50.01832 | 70.26247 | 30244 ft | 391 kts | 219° |
| 2026-04-26 12:51 | 49.99678 | 70.23738 | 30621 ft | 390 kts | 219° |
| 2026-04-26 12:51 | 49.97524 | 70.21235 | 30944 ft | 390 kts | 219° |
| 2026-04-26 12:51 | 49.95344 | 70.18707 | 31292 ft | 389 kts | 219° |
| 2026-04-26 12:52 | 49.93205 | 70.16231 | 31616 ft | 389 kts | 219° |
| 2026-04-26 12:52 | 49.91048 | 70.13736 | 31922 ft | 389 kts | 220° |
| 2026-04-26 12:52 | 49.88889 | 70.11247 | 32217 ft | 389 kts | 219° |
| 2026-04-26 12:52 | 49.86697 | 70.08736 | 32526 ft | 389 kts | 219° |
| 2026-04-26 12:53 | 49.84525 | 70.06251 | 32815 ft | 389 kts | 220° |
| 2026-04-26 12:53 | 49.82378 | 70.03792 | 33100 ft | 389 kts | 220° |
| 2026-04-26 12:53 | 49.80196 | 70.01292 | 33384 ft | 389 kts | 220° |
| 2026-04-26 12:53 | 49.78021 | 69.98801 | 33661 ft | 389 kts | 220° |
| 2026-04-26 12:54 | 49.75869 | 69.96336 | 33928 ft | 389 kts | 220° |
| 2026-04-26 12:54 | 49.73695 | 69.93848 | 34169 ft | 389 kts | 220° |
| 2026-04-26 12:54 | 49.71544 | 69.91389 | 34392 ft | 389 kts | 220° |
| 2026-04-26 12:54 | 49.69382 | 69.88919 | 34598 ft | 389 kts | 219° |
| 2026-04-26 12:55 | 49.67202 | 69.86433 | 34795 ft | 389 kts | 219° |
| 2026-04-26 12:55 | 49.65016 | 69.83942 | 34974 ft | 389 kts | 219° |
| 2026-04-26 12:55 | 49.62870 | 69.81496 | 35166 ft | 389 kts | 219° |
| 2026-04-26 12:55 | 49.60690 | 69.79020 | 35346 ft | 389 kts | 219° |
| 2026-04-26 12:56 | 49.58518 | 69.76554 | 35504 ft | 389 kts | 219° |
| 2026-04-26 12:56 | 49.56353 | 69.74097 | 35682 ft | 390 kts | 219° |
| 2026-04-26 12:56 | 49.54161 | 69.71614 | 35877 ft | 390 kts | 219° |
| 2026-04-26 12:56 | 49.52005 | 69.69177 | 36045 ft | 390 kts | 219° |
| 2026-04-26 12:57 | 49.49822 | 69.66707 | 36240 ft | 391 kts | 219° |
| 2026-04-26 12:57 | 49.47626 | 69.64229 | 36396 ft | 391 kts | 219° |
| 2026-04-26 12:57 | 49.45449 | 69.61775 | 36540 ft | 392 kts | 219° |
| 2026-04-26 12:58 | 49.41042 | 69.56813 | 36825 ft | 394 kts | 219° |
| 2026-04-26 12:58 | 49.38835 | 69.54334 | 36918 ft | 395 kts | 219° |
| 2026-04-26 12:58 | 49.36603 | 69.51830 | 37054 ft | 396 kts | 219° |
| 2026-04-26 12:58 | 49.34392 | 69.49406 | 37138 ft | 398 kts | 217° |
| 2026-04-26 12:59 | 49.29573 | 69.45154 | 37320 ft | 403 kts | 209° |
| 2026-04-26 12:59 | 49.26996 | 69.43406 | 37435 ft | 405 kts | 206° |
| 2026-04-26 12:59 | 49.24353 | 69.41948 | 37509 ft | 408 kts | 202° |
| 2026-04-26 13:00 | 49.21630 | 69.40772 | 37623 ft | 410 kts | 198° |
| 2026-04-26 13:00 | 49.18850 | 69.39895 | 37754 ft | 412 kts | 194° |
| 2026-04-26 13:00 | 49.13199 | 69.38463 | 37959 ft | 413 kts | 194° |
| 2026-04-26 13:01 | 49.07541 | 69.37044 | 38097 ft | 414 kts | 194° |
| 2026-04-26 13:01 | 49.01857 | 69.35626 | 38132 ft | 416 kts | 194° |
| 2026-04-26 13:02 | 48.96162 | 69.34201 | 38121 ft | 416 kts | 193° |
| 2026-04-26 13:02 | 48.90429 | 69.32757 | 38134 ft | 416 kts | 193° |
| 2026-04-26 13:03 | 48.84741 | 69.31347 | 38141 ft | 416 kts | 193° |
| 2026-04-26 13:03 | 48.79059 | 69.29950 | 38152 ft | 417 kts | 193° |
| 2026-04-26 13:04 | 48.73344 | 69.28547 | 38153 ft | 417 kts | 194° |
| 2026-04-26 13:04 | 48.67631 | 69.27145 | 38144 ft | 417 kts | 194° |
| 2026-04-26 13:05 | 48.61896 | 69.25740 | 38168 ft | 417 kts | 194° |
| 2026-04-26 13:05 | 48.56216 | 69.24353 | 38158 ft | 417 kts | 194° |
| 2026-04-26 13:06 | 48.50516 | 69.22963 | 38158 ft | 417 kts | 194° |
| 2026-04-26 13:06 | 48.44781 | 69.21570 | 38151 ft | 418 kts | 194° |
| 2026-04-26 13:07 | 48.39075 | 69.20186 | 38168 ft | 417 kts | 194° |
| 2026-04-26 13:07 | 48.33360 | 69.18804 | 38155 ft | 417 kts | 194° |
| 2026-04-26 13:08 | 48.27615 | 69.17417 | 38165 ft | 417 kts | 194° |
| 2026-04-26 13:08 | 48.21898 | 69.16041 | 38163 ft | 417 kts | 194° |
| 2026-04-26 13:09 | 48.16186 | 69.14669 | 38160 ft | 419 kts | 194° |
| 2026-04-26 13:09 | 48.10450 | 69.13292 | 38170 ft | 423 kts | 194° |
| 2026-04-26 13:10 | 48.04610 | 69.11894 | 38170 ft | 427 kts | 194° |
| 2026-04-26 13:10 | 47.98734 | 69.10490 | 38170 ft | 430 kts | 194° |
| 2026-04-26 13:11 | 47.92811 | 69.09080 | 38166 ft | 433 kts | 194° |
| 2026-04-26 13:11 | 47.86880 | 69.07675 | 38177 ft | 434 kts | 194° |
| 2026-04-26 13:12 | 47.80917 | 69.06273 | 38171 ft | 433 kts | 194° |
| 2026-04-26 13:12 | 47.75014 | 69.04884 | 38176 ft | 433 kts | 194° |
| 2026-04-26 13:13 | 47.69075 | 69.03484 | 38172 ft | 433 kts | 194° |
| 2026-04-26 13:13 | 47.63160 | 69.02092 | 38174 ft | 432 kts | 194° |
| 2026-04-26 13:14 | 47.57209 | 69.00696 | 38173 ft | 432 kts | 194° |
| 2026-04-26 13:14 | 47.51277 | 68.99307 | 38169 ft | 431 kts | 194° |
| 2026-04-26 13:15 | 47.45370 | 68.97926 | 38172 ft | 431 kts | 194° |
| 2026-04-26 13:15 | 47.40429 | 68.96772 | 38166 ft | 431 kts | 194° |
| 2026-04-26 13:16 | 47.33556 | 68.95173 | 38168 ft | 431 kts | 194° |
| 2026-04-26 13:16 | 47.27659 | 68.93803 | 38162 ft | 431 kts | 194° |
| 2026-04-26 13:17 | 47.18784 | 68.91749 | 38161 ft | 430 kts | 194° |
| 2026-04-26 13:18 | 47.09952 | 68.89711 | 38165 ft | 430 kts | 194° |
| 2026-04-26 13:19 | 47.01131 | 68.87684 | 38162 ft | 429 kts | 194° |
| 2026-04-26 13:19 | 46.95211 | 68.86325 | 38155 ft | 430 kts | 194° |
| 2026-04-26 13:20 | 46.89328 | 68.84978 | 38176 ft | 429 kts | 194° |
| 2026-04-26 13:20 | 46.83453 | 68.83648 | 38169 ft | 429 kts | 194° |
| 2026-04-26 13:21 | 46.77538 | 68.82310 | 38160 ft | 429 kts | 194° |
| 2026-04-26 13:21 | 46.71656 | 68.80976 | 38167 ft | 428 kts | 194° |
| 2026-04-26 13:22 | 46.65801 | 68.79649 | 38172 ft | 428 kts | 194° |
| 2026-04-26 13:22 | 46.59919 | 68.78319 | 38174 ft | 427 kts | 194° |
| 2026-04-26 13:23 | 46.54076 | 68.76998 | 38168 ft | 427 kts | 194° |
| 2026-04-26 13:23 | 46.48236 | 68.75683 | 38160 ft | 426 kts | 194° |
| 2026-04-26 13:24 | 46.42381 | 68.74365 | 38161 ft | 426 kts | 194° |
| 2026-04-26 13:24 | 46.36550 | 68.73058 | 38167 ft | 426 kts | 195° |
| 2026-04-26 13:25 | 46.30703 | 68.71751 | 38170 ft | 425 kts | 194° |
| 2026-04-26 13:25 | 46.24847 | 68.70441 | 38172 ft | 426 kts | 194° |
| 2026-04-26 13:26 | 46.19007 | 68.69141 | 38172 ft | 427 kts | 194° |
| 2026-04-26 13:26 | 46.13167 | 68.67842 | 38190 ft | 427 kts | 195° |
| 2026-04-26 13:27 | 46.07315 | 68.66545 | 38185 ft | 426 kts | 195° |
| 2026-04-26 13:27 | 46.01483 | 68.65254 | 38180 ft | 425 kts | 195° |
| 2026-04-26 13:28 | 45.95623 | 68.63962 | 38188 ft | 425 kts | 195° |
| 2026-04-26 13:28 | 45.89831 | 68.62685 | 38183 ft | 425 kts | 195° |
| 2026-04-26 13:29 | 45.83977 | 68.61410 | 38175 ft | 424 kts | 194° |
| 2026-04-26 13:29 | 45.78182 | 68.60146 | 38174 ft | 424 kts | 195° |
| 2026-04-26 13:30 | 45.72342 | 68.58867 | 38173 ft | 424 kts | 195° |
| 2026-04-26 13:30 | 45.66513 | 68.57589 | 38195 ft | 425 kts | 195° |
| 2026-04-26 13:31 | 45.60682 | 68.56315 | 38180 ft | 425 kts | 195° |
| 2026-04-26 13:31 | 45.54871 | 68.55050 | 38186 ft | 424 kts | 195° |
| 2026-04-26 13:32 | 45.49051 | 68.53787 | 38174 ft | 424 kts | 195° |
| 2026-04-26 13:32 | 45.43219 | 68.52525 | 38183 ft | 425 kts | 195° |
| 2026-04-26 13:33 | 45.37387 | 68.51263 | 38182 ft | 424 kts | 195° |
| 2026-04-26 13:33 | 45.31579 | 68.50011 | 38186 ft | 424 kts | 195° |
| 2026-04-26 13:34 | 45.25740 | 68.48755 | 38178 ft | 425 kts | 195° |
| 2026-04-26 13:34 | 45.19906 | 68.47503 | 38179 ft | 425 kts | 195° |
| 2026-04-26 13:35 | 45.14088 | 68.46257 | 38178 ft | 424 kts | 195° |
| 2026-04-26 13:35 | 45.08260 | 68.45010 | 38174 ft | 424 kts | 195° |
| 2026-04-26 13:36 | 45.02438 | 68.43769 | 38188 ft | 423 kts | 195° |
| 2026-04-26 13:36 | 44.96615 | 68.42530 | 38176 ft | 423 kts | 195° |
| 2026-04-26 13:37 | 44.90811 | 68.41296 | 38172 ft | 424 kts | 195° |
| 2026-04-26 13:37 | 44.84965 | 68.40061 | 38176 ft | 425 kts | 195° |
| 2026-04-26 13:38 | 44.79152 | 68.38841 | 38175 ft | 425 kts | 195° |
| 2026-04-26 13:38 | 44.73307 | 68.37609 | 38182 ft | 425 kts | 195° |
| 2026-04-26 13:39 | 44.67489 | 68.36384 | 38182 ft | 424 kts | 195° |
| 2026-04-26 13:39 | 44.61311 | 68.35085 | 38183 ft | 425 kts | 194° |
| 2026-04-26 13:40 | 44.55438 | 68.33831 | 38178 ft | 425 kts | 194° |
| 2026-04-26 13:40 | 44.49561 | 68.32583 | 38174 ft | 425 kts | 194° |
| 2026-04-26 13:41 | 44.43718 | 68.31357 | 38179 ft | 426 kts | 194° |
| 2026-04-26 13:41 | 44.37869 | 68.30140 | 38179 ft | 426 kts | 194° |
| 2026-04-26 13:42 | 44.32041 | 68.28931 | 38181 ft | 427 kts | 194° |
| 2026-04-26 13:42 | 44.26145 | 68.27715 | 38183 ft | 427 kts | 194° |
| 2026-04-26 13:43 | 44.20293 | 68.26517 | 38183 ft | 428 kts | 193° |
| 2026-04-26 13:43 | 44.14324 | 68.25852 | 38185 ft | 433 kts | 187° |
| 2026-04-26 13:44 | 44.08296 | 68.26051 | 38188 ft | 438 kts | 181° |
| 2026-04-26 13:44 | 44.02222 | 68.26869 | 38190 ft | 439 kts | 180° |
| 2026-04-26 13:45 | 43.96120 | 68.27696 | 38187 ft | 439 kts | 180° |
| 2026-04-26 13:45 | 43.90051 | 68.28518 | 38183 ft | 439 kts | 180° |
| 2026-04-26 13:46 | 43.84009 | 68.29339 | 38182 ft | 439 kts | 180° |
| 2026-04-26 13:46 | 43.77927 | 68.30167 | 38183 ft | 439 kts | 180° |
| 2026-04-26 13:47 | 43.71846 | 68.30994 | 38180 ft | 439 kts | 180° |
| 2026-04-26 13:47 | 43.65811 | 68.31814 | 38179 ft | 439 kts | 180° |
| 2026-04-26 13:48 | 43.59714 | 68.32624 | 38175 ft | 439 kts | 180° |
| 2026-04-26 13:48 | 43.53670 | 68.33427 | 38171 ft | 440 kts | 180° |
| 2026-04-26 13:49 | 43.47599 | 68.34241 | 38168 ft | 439 kts | 180° |
| 2026-04-26 13:49 | 43.41498 | 68.35064 | 38166 ft | 439 kts | 180° |
| 2026-04-26 13:50 | 43.35435 | 68.35879 | 38162 ft | 440 kts | 180° |
| 2026-04-26 13:50 | 43.29351 | 68.36775 | 38159 ft | 442 kts | 177° |
| 2026-04-26 13:51 | 43.23269 | 68.38154 | 38154 ft | 443 kts | 176° |
| 2026-04-26 13:51 | 43.17182 | 68.39555 | 38152 ft | 444 kts | 176° |
| 2026-04-26 13:52 | 43.11124 | 68.40952 | 38150 ft | 444 kts | 175° |
| 2026-04-26 13:52 | 43.05045 | 68.42357 | 38147 ft | 444 kts | 175° |
| 2026-04-26 13:53 | 42.98949 | 68.43765 | 38144 ft | 445 kts | 176° |
| 2026-04-26 13:53 | 42.92836 | 68.45173 | 38149 ft | 444 kts | 176° |
| 2026-04-26 13:54 | 42.86773 | 68.46571 | 38150 ft | 436 kts | 175° |
| 2026-04-26 13:54 | 42.80859 | 68.47929 | 38153 ft | 433 kts | 176° |
| 2026-04-26 13:55 | 42.72934 | 68.49741 | 38151 ft | 434 kts | 175° |
| 2026-04-26 13:56 | 42.63007 | 68.52007 | 38148 ft | 434 kts | 175° |
| 2026-04-26 13:56 | 42.57084 | 68.53356 | 38147 ft | 435 kts | 175° |
| 2026-04-26 13:57 | 42.51107 | 68.54717 | 38148 ft | 435 kts | 175° |
| 2026-04-26 13:57 | 42.45176 | 68.56063 | 38150 ft | 435 kts | 176° |
| 2026-04-26 13:58 | 42.39216 | 68.57413 | 38148 ft | 435 kts | 176° |
| 2026-04-26 13:58 | 42.33242 | 68.58765 | 38148 ft | 434 kts | 176° |
| 2026-04-26 13:59 | 42.27287 | 68.60109 | 38145 ft | 435 kts | 176° |
| 2026-04-26 13:59 | 42.21340 | 68.61449 | 38148 ft | 436 kts | 176° |
| 2026-04-26 14:00 | 42.09376 | 68.64135 | 38154 ft | 436 kts | 175° |
| 2026-04-26 14:01 | 42.03383 | 68.65485 | 38155 ft | 436 kts | 176° |
| 2026-04-26 14:01 | 41.97434 | 68.66844 | 38156 ft | 435 kts | 176° |
| 2026-04-26 14:02 | 41.91437 | 68.68197 | 38331 ft | 436 kts | 176° |
| 2026-04-26 14:02 | 41.88478 | 68.68858 | 38220 ft | 435 kts | 176° |
| 2026-04-26 14:02 | 41.85468 | 68.69527 | 38183 ft | 435 kts | 176° |
| 2026-04-26 14:03 | 41.79529 | 68.70850 | 38164 ft | 435 kts | 176° |
| 2026-04-26 14:03 | 41.73534 | 68.72181 | 38156 ft | 436 kts | 176° |
| 2026-04-26 14:04 | 41.67587 | 68.73498 | 38152 ft | 436 kts | 176° |
| 2026-04-26 14:04 | 41.61594 | 68.74827 | 38150 ft | 436 kts | 176° |
| 2026-04-26 14:05 | 41.55611 | 68.76148 | 38144 ft | 436 kts | 176° |
| 2026-04-26 14:05 | 41.49641 | 68.77469 | 38137 ft | 436 kts | 176° |
| 2026-04-26 14:06 | 41.43650 | 68.78790 | 38134 ft | 436 kts | 177° |
| 2026-04-26 14:06 | 41.37683 | 68.79994 | 38132 ft | 434 kts | 180° |
| 2026-04-26 14:07 | 41.31675 | 68.80679 | 38127 ft | 433 kts | 181° |
| 2026-04-26 14:07 | 41.25670 | 68.81351 | 38129 ft | 433 kts | 181° |
| 2026-04-26 14:08 | 41.19661 | 68.82020 | 38122 ft | 434 kts | 181° |
| 2026-04-26 14:08 | 41.13663 | 68.82690 | 38118 ft | 434 kts | 181° |
| 2026-04-26 14:09 | 41.07672 | 68.83359 | 38118 ft | 434 kts | 181° |
| 2026-04-26 14:09 | 41.01643 | 68.84028 | 38116 ft | 434 kts | 181° |
| 2026-04-26 14:10 | 40.95642 | 68.84692 | 38114 ft | 433 kts | 181° |
| 2026-04-26 14:10 | 40.89652 | 68.85356 | 38121 ft | 434 kts | 181° |
| 2026-04-26 14:11 | 40.80651 | 68.86351 | 38126 ft | 435 kts | 181° |
| 2026-04-26 14:11 | 40.74603 | 68.87017 | 38133 ft | 436 kts | 181° |
| 2026-04-26 14:12 | 40.68579 | 68.87681 | 38129 ft | 435 kts | 181° |
| 2026-04-26 14:12 | 40.62536 | 68.88345 | 38131 ft | 435 kts | 181° |
| 2026-04-26 14:13 | 40.53510 | 68.89333 | 38155 ft | 435 kts | 182° |
| 2026-04-26 14:14 | 40.47464 | 68.89996 | 38143 ft | 435 kts | 181° |
| 2026-04-26 14:14 | 40.41430 | 68.90653 | 38149 ft | 435 kts | 181° |
| 2026-04-26 14:15 | 40.35406 | 68.91312 | 38147 ft | 437 kts | 182° |
| 2026-04-26 14:15 | 40.29340 | 68.91972 | 38160 ft | 437 kts | 182° |
| 2026-04-26 14:16 | 40.23318 | 68.92631 | 38179 ft | 437 kts | 182° |
| 2026-04-26 14:16 | 40.17274 | 68.93291 | 38175 ft | 436 kts | 182° |
| 2026-04-26 14:17 | 40.11197 | 68.93951 | 38197 ft | 436 kts | 182° |
| 2026-04-26 14:17 | 40.05222 | 68.94304 | 38211 ft | 428 kts | 187° |
| 2026-04-26 14:18 | 39.99302 | 68.93910 | 38237 ft | 426 kts | 190° |
| 2026-04-26 14:18 | 39.93399 | 68.93412 | 38258 ft | 426 kts | 190° |
| 2026-04-26 14:19 | 39.87501 | 68.92919 | 38255 ft | 424 kts | 190° |
| 2026-04-26 14:19 | 39.84547 | 68.92679 | 37972 ft | 419 kts | 190° |
| 2026-04-26 14:19 | 39.81659 | 68.92441 | 37339 ft | 418 kts | 190° |
| 2026-04-26 14:19 | 39.78764 | 68.92198 | 36698 ft | 417 kts | 190° |
| 2026-04-26 14:20 | 39.75893 | 68.91958 | 36066 ft | 415 kts | 190° |
| 2026-04-26 14:20 | 39.72993 | 68.91715 | 35381 ft | 415 kts | 190° |
| 2026-04-26 14:20 | 39.70143 | 68.91474 | 34659 ft | 417 kts | 189° |
| 2026-04-26 14:20 | 39.67240 | 68.91233 | 33892 ft | 419 kts | 190° |
| 2026-04-26 14:21 | 39.64306 | 68.90989 | 33132 ft | 422 kts | 189° |
| 2026-04-26 14:21 | 39.61414 | 68.90747 | 32368 ft | 424 kts | 189° |
| 2026-04-26 14:21 | 39.58460 | 68.90498 | 31541 ft | 428 kts | 189° |
| 2026-04-26 14:21 | 39.55450 | 68.90246 | 30667 ft | 432 kts | 188° |
| 2026-04-26 14:22 | 39.52466 | 68.89980 | 29809 ft | 435 kts | 188° |
| 2026-04-26 14:22 | 39.49472 | 68.89707 | 28942 ft | 437 kts | 188° |
| 2026-04-26 14:22 | 39.46408 | 68.89433 | 27995 ft | 440 kts | 187° |
| 2026-04-26 14:22 | 39.43351 | 68.89162 | 27181 ft | 440 kts | 187° |
| 2026-04-26 14:23 | 39.40341 | 68.88900 | 26559 ft | 435 kts | 187° |
| 2026-04-26 14:23 | 39.37343 | 68.88640 | 25918 ft | 431 kts | 187° |
| 2026-04-26 14:23 | 39.34356 | 68.88375 | 25221 ft | 428 kts | 187° |
| 2026-04-26 14:23 | 39.31372 | 68.88120 | 24528 ft | 426 kts | 186° |
| 2026-04-26 14:24 | 39.28456 | 68.87887 | 23874 ft | 423 kts | 186° |
| 2026-04-26 14:24 | 39.25506 | 68.87658 | 23227 ft | 420 kts | 186° |
| 2026-04-26 14:24 | 39.22617 | 68.87436 | 22605 ft | 417 kts | 185° |
| 2026-04-26 14:24 | 39.19715 | 68.87215 | 22020 ft | 414 kts | 185° |
| 2026-04-26 14:25 | 39.16895 | 68.87000 | 21475 ft | 409 kts | 185° |
| 2026-04-26 14:25 | 39.14072 | 68.86783 | 20934 ft | 405 kts | 185° |
| 2026-04-26 14:25 | 39.11261 | 68.86568 | 20389 ft | 401 kts | 184° |
| 2026-04-26 14:25 | 39.08488 | 68.86357 | 19850 ft | 397 kts | 184° |
| 2026-04-26 14:26 | 39.05776 | 68.86150 | 19332 ft | 392 kts | 184° |
| 2026-04-26 14:26 | 39.03060 | 68.85944 | 18820 ft | 388 kts | 184° |
| 2026-04-26 14:26 | 39.00363 | 68.85739 | 18565 ft | 385 kts | 184° |
| 2026-04-26 14:26 | 38.97693 | 68.85538 | 18542 ft | 386 kts | 184° |
| 2026-04-26 14:27 | 38.94991 | 68.85336 | 18522 ft | 387 kts | 184° |
| 2026-04-26 14:27 | 38.92319 | 68.85136 | 18538 ft | 387 kts | 184° |
| 2026-04-26 14:27 | 38.89607 | 68.84931 | 18526 ft | 388 kts | 184° |
| 2026-04-26 14:27 | 38.86917 | 68.84727 | 18521 ft | 388 kts | 184° |
| 2026-04-26 14:28 | 38.84208 | 68.84501 | 18523 ft | 387 kts | 185° |
| 2026-04-26 14:28 | 38.81537 | 68.84167 | 18459 ft | 383 kts | 186° |
| 2026-04-26 14:28 | 38.78920 | 68.83836 | 18021 ft | 380 kts | 186° |
| 2026-04-26 14:28 | 38.76266 | 68.83501 | 17401 ft | 379 kts | 186° |
| 2026-04-26 14:29 | 38.73663 | 68.83174 | 16831 ft | 378 kts | 186° |
| 2026-04-26 14:29 | 38.71033 | 68.82844 | 16287 ft | 375 kts | 185° |
| 2026-04-26 14:29 | 38.68463 | 68.82525 | 15747 ft | 373 kts | 186° |
| 2026-04-26 14:29 | 38.65887 | 68.82149 | 15179 ft | 370 kts | 188° |
| 2026-04-26 14:30 | 38.64225 | 68.81785 | 14836 ft | 370 kts | 191° |
| 2026-04-26 14:30 | 38.60925 | 68.80695 | 13887 ft | 362 kts | 197° |
| 2026-04-26 14:30 | 38.58529 | 68.79722 | 12716 ft | 361 kts | 197° |
| 2026-04-26 14:30 | 38.56167 | 68.78747 | 11671 ft | 355 kts | 197° |
| 2026-04-26 14:31 | 38.53871 | 68.77799 | 10911 ft | 340 kts | 197° |
| 2026-04-26 14:31 | 38.51619 | 68.76874 | 10419 ft | 328 kts | 197° |
| 2026-04-26 14:31 | 38.49512 | 68.76009 | 10192 ft | 316 kts | 197° |
| 2026-04-26 14:31 | 38.47525 | 68.74966 | 10162 ft | 299 kts | 214° |
| 2026-04-26 14:32 | 38.46164 | 68.73064 | 10094 ft | 289 kts | 241° |
| 2026-04-26 14:32 | 38.45599 | 68.70609 | 9678 ft | 291 kts | 267° |
| 2026-04-26 14:32 | 38.45617 | 68.68034 | 9267 ft | 293 kts | 271° |
| 2026-04-26 14:32 | 38.45670 | 68.65458 | 8854 ft | 293 kts | 271° |
| 2026-04-26 14:33 | 38.45706 | 68.62901 | 8656 ft | 284 kts | 271° |
| 2026-04-26 14:33 | 38.45723 | 68.60402 | 8501 ft | 275 kts | 270° |
| 2026-04-26 14:33 | 38.45730 | 68.58019 | 8352 ft | 267 kts | 270° |
| 2026-04-26 14:33 | 38.45733 | 68.55696 | 8221 ft | 257 kts | 270° |
| 2026-04-26 14:34 | 38.45734 | 68.53464 | 8215 ft | 243 kts | 270° |
| 2026-04-26 14:34 | 38.45810 | 68.51350 | 8204 ft | 239 kts | 284° |
| 2026-04-26 14:34 | 38.46642 | 68.49565 | 8176 ft | 234 kts | 324° |
| 2026-04-26 14:34 | 38.48108 | 68.48803 | 8190 ft | 232 kts | 358° |
| 2026-04-26 14:35 | 38.49733 | 68.48837 | 8224 ft | 234 kts | 4° |
| 2026-04-26 14:35 | 38.51366 | 68.48905 | 8235 ft | 235 kts | 2° |
| 2026-04-26 14:35 | 38.52988 | 68.49124 | 8220 ft | 233 kts | 23° |
| 2026-04-26 14:35 | 38.54195 | 68.50350 | 8156 ft | 223 kts | 62° |
| 2026-04-26 14:36 | 38.54561 | 68.52248 | 7867 ft | 222 kts | 88° |
| 2026-04-26 14:36 | 38.54549 | 68.54202 | 7403 ft | 222 kts | 92° |
| 2026-04-26 14:36 | 38.54492 | 68.56187 | 6818 ft | 226 kts | 92° |
| 2026-04-26 14:36 | 38.54450 | 68.58176 | 6353 ft | 226 kts | 91° |
| 2026-04-26 14:37 | 38.54430 | 68.60172 | 5918 ft | 225 kts | 91° |
| 2026-04-26 14:37 | 38.54422 | 68.62157 | 5496 ft | 223 kts | 91° |
| 2026-04-26 14:37 | 38.54419 | 68.64122 | 5064 ft | 222 kts | 91° |
| 2026-04-26 14:37 | 38.54415 | 68.66062 | 4707 ft | 217 kts | 91° |
| 2026-04-26 14:38 | 38.54411 | 68.67936 | 4500 ft | 203 kts | 91° |
| 2026-04-26 14:38 | 38.54406 | 68.69694 | 4218 ft | 194 kts | 91° |
| 2026-04-26 14:38 | 38.54401 | 68.71356 | 3975 ft | 182 kts | 91° |
| 2026-04-26 14:38 | 38.54398 | 68.72414 | 3819 ft | 173 kts | 91° |
| 2026-04-26 14:39 | 38.54394 | 68.74371 | 3506 ft | 153 kts | 91° |
| 2026-04-26 14:39 | 38.54390 | 68.75683 | 3288 ft | 143 kts | 91° |
| 2026-04-26 14:39 | 38.54374 | 68.76950 | 3117 ft | 143 kts | 91° |
| 2026-04-26 14:39 | 38.54375 | 68.78229 | 2952 ft | 142 kts | 90° |
| 2026-04-26 14:40 | 38.54377 | 68.79493 | 2784 ft | 141 kts | 91° |
| 2026-04-26 14:40 | 38.54373 | 68.80736 | 2628 ft | 140 kts | 91° |
| 2026-04-26 14:40 | 38.54370 | 68.81880 | 2607 ft | 108 kts | 90° |
| 2026-04-26 14:40 | 38.54370 | 68.82622 | 2608 ft | 58 kts | 90° |
| 2026-04-26 14:41 | 38.54370 | 68.82947 | 2608 ft | 25 kts | 90° |
| 2026-04-26 14:41 | 38.54369 | 68.83170 | 2608 ft | 23 kts | 90° |
| 2026-04-26 14:41 | 38.54395 | 68.83279 | 2608 ft | 12 kts | 30° |
| 2026-04-26 14:41 | 38.54486 | 68.83291 | 2609 ft | 13 kts | 0° |
| 2026-04-26 14:42 | 38.54548 | 68.83292 | 2609 ft | 9 kts | 0° |
| 2026-04-26 14:42 | 38.54617 | 68.83292 | 2610 ft | 10 kts | 0° |
| 2026-04-26 14:42 | 38.54681 | 68.83261 | 2610 ft | 11 kts | 289° |
| 2026-04-26 14:42 | 38.54684 | 68.83157 | 2610 ft | 12 kts | 270° |
| 2026-04-26 14:43 | 38.54684 | 68.83044 | 2610 ft | 13 kts | 270° |
| 2026-04-26 14:43 | 38.54684 | 68.82928 | 2610 ft | 11 kts | 270° |
| 2026-04-26 14:43 | 38.54684 | 68.82833 | 2610 ft | 8 kts | 270° |
| 2026-04-26 14:43 | 38.54684 | 68.82754 | 2610 ft | 9 kts | 270° |
| 2026-04-26 14:44 | 38.54684 | 68.82662 | 2610 ft | 12 kts | 270° |
| 2026-04-26 14:44 | 38.54683 | 68.82539 | 2610 ft | 14 kts | 269° |
| 2026-04-26 14:44 | 38.54684 | 68.82410 | 2609 ft | 14 kts | 270° |
| 2026-04-26 14:44 | 38.54694 | 68.82276 | 2609 ft | 15 kts | 271° |
| 2026-04-26 14:45 | 38.54694 | 68.82138 | 2609 ft | 15 kts | 270° |
| 2026-04-26 14:45 | 38.54694 | 68.82046 | 2609 ft | 16 kts | 270° |
| 2026-04-26 14:45 | 38.54695 | 68.81850 | 2609 ft | 16 kts | 270° |
| 2026-04-26 14:45 | 38.54695 | 68.81702 | 2609 ft | 16 kts | 270° |
| 2026-04-26 14:46 | 38.54695 | 68.81581 | 2609 ft | 9 kts | 271° |
| 2026-04-26 14:46 | 38.54696 | 68.81509 | 2609 ft | 8 kts | 270° |
| 2026-04-26 14:46 | 38.54696 | 68.81451 | 2609 ft | 4 kts | 271° |
| 2026-04-26 14:46 | 38.54717 | 68.81419 | 2609 ft | 5 kts | 344° |
| 2026-04-26 14:47 | 38.54755 | 68.81415 | 2609 ft | 5 kts | 4° |
| 2026-04-26 14:47 | 38.54787 | 68.81416 | 2609 ft | 2 kts | 0° |
| 2026-04-26 14:47 | 38.54796 | 68.81416 | 2609 ft | 0 kts | 0° |